sensor_id;sensor_type;location;lat;lon;timestamp;pressure;altitude;pressure_sealevel;temperature;humidity
70141;BME280;57508;43.086;0.136;2022-09-09T00:01:28;95980.44;;;24.84;41.20
70141;BME280;57508;43.086;0.136;2022-09-09T00:06:30;95984.69;;;24.82;41.53
70141;BME280;57508;43.086;0.136;2022-09-09T00:09:10;95984.69;;;24.82;41.39
70141;BME280;57508;43.086;0.136;2022-09-09T00:11:44;95985.91;;;24.88;41.20
70141;BME280;57508;43.086;0.136;2022-09-09T00:17:17;95988.25;;;24.52;41.63
70141;BME280;57508;43.086;0.136;2022-09-09T00:20:03;95983.31;;;24.19;42.15
70141;BME280;57508;43.086;0.136;2022-09-09T00:22:35;95989.59;;;24.69;41.08
70141;BME280;57508;43.086;0.136;2022-09-09T00:25:18;95980.38;;;24.32;42.24
70141;BME280;57508;43.086;0.136;2022-09-09T00:27:48;95973.25;;;24.16;42.68
70141;BME280;57508;43.086;0.136;2022-09-09T00:30:18;95976.19;;;24.38;42.11
70141;BME280;57508;43.086;0.136;2022-09-09T00:32:48;95979.34;;;24.47;41.75
70141;BME280;57508;43.086;0.136;2022-09-09T00:35:28;95981.00;;;24.56;41.65
70141;BME280;57508;43.086;0.136;2022-09-09T00:38:00;95981.38;;;24.54;41.55
70141;BME280;57508;43.086;0.136;2022-09-09T00:40:32;95977.44;;;24.48;41.93
70141;BME280;57508;43.086;0.136;2022-09-09T00:48:31;95971.94;;;24.37;41.97
70141;BME280;57508;43.086;0.136;2022-09-09T00:51:10;95970.94;;;24.53;41.84
70141;BME280;57508;43.086;0.136;2022-09-09T00:56:29;95983.75;;;24.63;41.17
70141;BME280;57508;43.086;0.136;2022-09-09T01:05:19;95990.88;;;24.86;40.74
70141;BME280;57508;43.086;0.136;2022-09-09T01:07:47;95995.63;;;24.93;40.61
70141;BME280;57508;43.086;0.136;2022-09-09T01:10:26;95996.25;;;25.31;40.02
70141;BME280;57508;43.086;0.136;2022-09-09T01:12:58;95997.81;;;25.32;39.90
70141;BME280;57508;43.086;0.136;2022-09-09T01:15:29;95991.69;;;25.46;40.10
70141;BME280;57508;43.086;0.136;2022-09-09T01:18:05;95993.78;;;25.71;39.19
70141;BME280;57508;43.086;0.136;2022-09-09T01:23:19;95984.59;;;25.20;40.08
70141;BME280;57508;43.086;0.136;2022-09-09T01:28:52;95973.81;;;24.78;40.98
70141;BME280;57508;43.086;0.136;2022-09-09T01:31:40;95968.47;;;24.82;41.76
70141;BME280;57508;43.086;0.136;2022-09-09T01:34:14;95977.34;;;25.38;40.41
70141;BME280;57508;43.086;0.136;2022-09-09T01:37:05;95992.22;;;25.63;40.16
70141;BME280;57508;43.086;0.136;2022-09-09T01:39:33;95988.84;;;25.88;39.41
70141;BME280;57508;43.086;0.136;2022-09-09T01:41:59;95988.06;;;25.84;39.12
70141;BME280;57508;43.086;0.136;2022-09-09T01:44:25;95994.31;;;26.03;38.50
70141;BME280;57508;43.086;0.136;2022-09-09T01:46:52;95988.53;;;26.22;38.50
70141;BME280;57508;43.086;0.136;2022-09-09T01:49:18;95982.03;;;26.34;38.27
70141;BME280;57508;43.086;0.136;2022-09-09T01:51:46;95984.34;;;26.43;37.98
70141;BME280;57508;43.086;0.136;2022-09-09T01:54:13;95997.13;;;26.39;38.36
70141;BME280;57508;43.086;0.136;2022-09-09T01:57:23;95991.34;;;26.44;38.04
70141;BME280;57508;43.086;0.136;2022-09-09T02:02:26;95990.94;;;26.35;38.32
70141;BME280;57508;43.086;0.136;2022-09-09T02:05:04;95998.13;;;25.87;39.48
70141;BME280;57508;43.086;0.136;2022-09-09T02:07:49;95989.56;;;25.81;39.68
70141;BME280;57508;43.086;0.136;2022-09-09T02:13:13;95995.72;;;25.07;41.63
70141;BME280;57508;43.086;0.136;2022-09-09T02:18:46;96004.34;;;25.98;39.05
70141;BME280;57508;43.086;0.136;2022-09-09T02:21:13;95992.75;;;25.27;41.00
70141;BME280;57508;43.086;0.136;2022-09-09T02:23:41;95995.28;;;25.61;40.03
70141;BME280;57508;43.086;0.136;2022-09-09T02:26:08;95995.50;;;25.34;40.70
70141;BME280;57508;43.086;0.136;2022-09-09T02:28:34;96001.13;;;25.71;40.33
70141;BME280;57508;43.086;0.136;2022-09-09T02:31:02;95999.34;;;26.08;39.10
70141;BME280;57508;43.086;0.136;2022-09-09T02:33:32;95997.84;;;26.21;39.17
70141;BME280;57508;43.086;0.136;2022-09-09T02:36:01;96002.09;;;26.22;39.33
70141;BME280;57508;43.086;0.136;2022-09-09T02:38:31;95994.75;;;26.23;39.39
70141;BME280;57508;43.086;0.136;2022-09-09T02:41:00;95999.06;;;26.35;39.17
70141;BME280;57508;43.086;0.136;2022-09-09T02:43:30;95987.38;;;26.16;39.86
70141;BME280;57508;43.086;0.136;2022-09-09T02:48:47;95983.09;;;26.08;39.78
70141;BME280;57508;43.086;0.136;2022-09-09T02:51:37;95986.13;;;25.88;40.85
70141;BME280;57508;43.086;0.136;2022-09-09T02:56:40;95973.13;;;26.34;39.59
70141;BME280;57508;43.086;0.136;2022-09-09T02:59:07;95974.31;;;26.51;38.71
70141;BME280;57508;43.086;0.136;2022-09-09T03:01:33;95973.94;;;26.53;38.77
70141;BME280;57508;43.086;0.136;2022-09-09T03:03:58;95976.63;;;26.45;39.46
70141;BME280;57508;43.086;0.136;2022-09-09T03:06:23;95975.84;;;26.52;39.01
70141;BME280;57508;43.086;0.136;2022-09-09T03:08:49;95968.50;;;26.49;39.28
70141;BME280;57508;43.086;0.136;2022-09-09T03:11:16;95966.19;;;26.55;38.78
70141;BME280;57508;43.086;0.136;2022-09-09T03:13:41;95967.22;;;26.03;40.56
70141;BME280;57508;43.086;0.136;2022-09-09T03:16:06;95954.91;;;26.23;40.31
70141;BME280;57508;43.086;0.136;2022-09-09T03:18:32;95961.78;;;25.99;40.91
70141;BME280;57508;43.086;0.136;2022-09-09T03:20:57;95960.38;;;26.53;39.06
70141;BME280;57508;43.086;0.136;2022-09-09T03:23:24;95956.53;;;26.50;39.51
70141;BME280;57508;43.086;0.136;2022-09-09T03:25:50;95965.03;;;26.56;39.04
70141;BME280;57508;43.086;0.136;2022-09-09T03:28:17;95975.47;;;26.68;39.26
70141;BME280;57508;43.086;0.136;2022-09-09T03:30:42;95972.38;;;26.55;39.64
70141;BME280;57508;43.086;0.136;2022-09-09T03:33:08;95973.91;;;26.31;39.82
70141;BME280;57508;43.086;0.136;2022-09-09T03:35:33;95974.66;;;26.31;40.42
70141;BME280;57508;43.086;0.136;2022-09-09T03:37:58;95980.13;;;26.79;39.40
70141;BME280;57508;43.086;0.136;2022-09-09T03:40:26;95984.78;;;26.89;39.67
70141;BME280;57508;43.086;0.136;2022-09-09T03:42:51;95989.06;;;26.90;39.01
70141;BME280;57508;43.086;0.136;2022-09-09T03:45:17;95978.25;;;26.97;38.46
70141;BME280;57508;43.086;0.136;2022-09-09T03:47:42;95979.41;;;27.00;38.68
70141;BME280;57508;43.086;0.136;2022-09-09T03:50:08;95987.50;;;26.96;38.92
70141;BME280;57508;43.086;0.136;2022-09-09T03:52:39;95987.50;;;27.04;38.50
70141;BME280;57508;43.086;0.136;2022-09-09T03:55:06;95990.59;;;27.02;38.40
70141;BME280;57508;43.086;0.136;2022-09-09T03:57:33;96002.22;;;26.81;39.37
70141;BME280;57508;43.086;0.136;2022-09-09T04:00:02;95991.38;;;26.84;39.37
70141;BME280;57508;43.086;0.136;2022-09-09T04:02:28;95991.72;;;26.43;40.21
70141;BME280;57508;43.086;0.136;2022-09-09T04:04:53;95995.97;;;26.44;39.86
70141;BME280;57508;43.086;0.136;2022-09-09T04:07:19;95995.47;;;26.05;41.12
70141;BME280;57508;43.086;0.136;2022-09-09T04:09:44;95991.72;;;26.43;40.11
70141;BME280;57508;43.086;0.136;2022-09-09T04:12:10;95984.38;;;26.58;39.54
70141;BME280;57508;43.086;0.136;2022-09-09T04:14:38;95989.03;;;26.83;39.20
70141;BME280;57508;43.086;0.136;2022-09-09T04:17:04;95981.31;;;26.85;39.13
70141;BME280;57508;43.086;0.136;2022-09-09T04:19:31;95973.50;;;26.36;40.44
70141;BME280;57508;43.086;0.136;2022-09-09T04:21:57;95979.25;;;26.20;40.51
70141;BME280;57508;43.086;0.136;2022-09-09T04:24:22;95984.75;;;26.38;40.55
70141;BME280;57508;43.086;0.136;2022-09-09T04:26:48;95982.81;;;26.49;40.30
70141;BME280;57508;43.086;0.136;2022-09-09T04:29:14;95977.78;;;26.37;40.02
70141;BME280;57508;43.086;0.136;2022-09-09T04:31:39;95973.94;;;26.67;39.56
70141;BME280;57508;43.086;0.136;2022-09-09T04:34:08;95976.06;;;25.85;41.36
70141;BME280;57508;43.086;0.136;2022-09-09T04:36:33;95972.00;;;26.46;39.77
70141;BME280;57508;43.086;0.136;2022-09-09T04:38:59;95971.63;;;26.66;39.84
70141;BME280;57508;43.086;0.136;2022-09-09T04:41:25;95966.44;;;25.98;41.03
70141;BME280;57508;43.086;0.136;2022-09-09T04:43:50;95969.09;;;25.80;41.80
70141;BME280;57508;43.086;0.136;2022-09-09T04:46:17;95968.00;;;26.07;41.38
70141;BME280;57508;43.086;0.136;2022-09-09T04:48:43;95954.13;;;26.26;40.31
70141;BME280;57508;43.086;0.136;2022-09-09T04:51:12;95963.25;;;25.74;41.48
70141;BME280;57508;43.086;0.136;2022-09-09T04:53:38;95955.53;;;25.69;42.05
70141;BME280;57508;43.086;0.136;2022-09-09T04:56:11;95964.03;;;25.71;41.25
70141;BME280;57508;43.086;0.136;2022-09-09T04:58:37;95963.31;;;25.85;41.35
70141;BME280;57508;43.086;0.136;2022-09-09T05:01:08;95963.28;;;25.78;41.10
70141;BME280;57508;43.086;0.136;2022-09-09T05:03:34;95959.44;;;25.90;41.01
70141;BME280;57508;43.086;0.136;2022-09-09T05:06:07;95964.69;;;24.45;44.34
70141;BME280;57508;43.086;0.136;2022-09-09T05:08:34;95961.78;;;25.21;42.45
70141;BME280;57508;43.086;0.136;2022-09-09T05:11:00;95964.03;;;25.68;40.75
70141;BME280;57508;43.086;0.136;2022-09-09T05:13:26;95967.19;;;25.88;40.83
70141;BME280;57508;43.086;0.136;2022-09-09T05:15:53;95970.28;;;25.90;40.52
70141;BME280;57508;43.086;0.136;2022-09-09T05:18:19;95969.50;;;25.93;40.49
70141;BME280;57508;43.086;0.136;2022-09-09T05:20:45;95976.88;;;25.93;40.58
70141;BME280;57508;43.086;0.136;2022-09-09T05:23:10;95976.09;;;25.92;40.90
70141;BME280;57508;43.086;0.136;2022-09-09T05:25:39;95976.47;;;25.91;40.47
70141;BME280;57508;43.086;0.136;2022-09-09T05:28:06;95976.84;;;25.89;40.73
70141;BME280;57508;43.086;0.136;2022-09-09T05:30:33;95986.09;;;25.84;40.43
70141;BME280;57508;43.086;0.136;2022-09-09T05:32:59;95987.25;;;25.76;41.35
70141;BME280;57508;43.086;0.136;2022-09-09T05:35:24;95986.47;;;25.83;40.37
70141;BME280;57508;43.086;0.136;2022-09-09T05:37:50;95992.66;;;25.80;41.31
70141;BME280;57508;43.086;0.136;2022-09-09T05:40:15;96001.97;;;25.82;40.35
70141;BME280;57508;43.086;0.136;2022-09-09T05:42:41;96006.22;;;25.83;40.74
70141;BME280;57508;43.086;0.136;2022-09-09T05:45:07;96001.59;;;25.87;40.91
70141;BME280;57508;43.086;0.136;2022-09-09T05:47:34;96002.78;;;25.94;41.45
70141;BME280;57508;43.086;0.136;2022-09-09T05:50:00;96012.81;;;25.93;41.15
70141;BME280;57508;43.086;0.136;2022-09-09T05:52:25;96000.03;;;25.90;40.89
70141;BME280;57508;43.086;0.136;2022-09-09T05:54:52;96015.94;;;25.95;41.18
70141;BME280;57508;43.086;0.136;2022-09-09T05:57:20;96022.50;;;25.87;41.45
70141;BME280;57508;43.086;0.136;2022-09-09T05:59:45;96025.97;;;25.91;40.74
70141;BME280;57508;43.086;0.136;2022-09-09T06:02:11;96020.56;;;25.91;40.67
70141;BME280;57508;43.086;0.136;2022-09-09T06:04:37;96018.25;;;25.93;41.15
70141;BME280;57508;43.086;0.136;2022-09-09T06:07:04;96017.50;;;26.00;40.88
70141;BME280;57508;43.086;0.136;2022-09-09T06:09:30;96028.94;;;25.64;41.71
70141;BME280;57508;43.086;0.136;2022-09-09T06:11:55;96026.75;;;25.88;41.84
70141;BME280;57508;43.086;0.136;2022-09-09T06:14:22;96037.31;;;26.19;40.84
70141;BME280;57508;43.086;0.136;2022-09-09T06:16:48;96042.00;;;26.33;40.93
70141;BME280;57508;43.086;0.136;2022-09-09T06:19:13;96042.44;;;26.42;40.61
70141;BME280;57508;43.086;0.136;2022-09-09T06:21:39;96039.72;;;26.49;40.65
70141;BME280;57508;43.086;0.136;2022-09-09T06:24:06;96028.53;;;26.55;40.53
70141;BME280;57508;43.086;0.136;2022-09-09T06:26:35;96041.72;;;26.63;40.52
70141;BME280;57508;43.086;0.136;2022-09-09T06:29:01;96042.88;;;26.66;40.45
70141;BME280;57508;43.086;0.136;2022-09-09T06:31:29;96046.75;;;26.65;40.10
70141;BME280;57508;43.086;0.136;2022-09-09T06:33:56;96046.34;;;26.67;40.43
70141;BME280;57508;43.086;0.136;2022-09-09T06:36:32;96054.84;;;26.61;39.98
70141;BME280;57508;43.086;0.136;2022-09-09T06:38:58;96055.25;;;26.60;40.36
70141;BME280;57508;43.086;0.136;2022-09-09T06:41:25;96065.72;;;26.65;39.65
70141;BME280;57508;43.086;0.136;2022-09-09T06:43:52;96060.28;;;26.69;39.88
70141;BME280;57508;43.086;0.136;2022-09-09T06:46:19;96057.97;;;26.67;40.14
70141;BME280;57508;43.086;0.136;2022-09-09T06:48:47;96062.97;;;26.54;40.21
70141;BME280;57508;43.086;0.136;2022-09-09T06:51:20;96062.16;;;26.46;40.27
70141;BME280;57508;43.086;0.136;2022-09-09T06:53:53;96066.47;;;26.55;39.97
70141;BME280;57508;43.086;0.136;2022-09-09T06:58:49;96068.81;;;26.67;39.80
70141;BME280;57508;43.086;0.136;2022-09-09T07:01:16;96071.88;;;26.55;39.96
70141;BME280;57508;43.086;0.136;2022-09-09T07:03:45;96072.28;;;26.79;39.87
70141;BME280;57508;43.086;0.136;2022-09-09T07:06:25;96078.13;;;26.92;40.07
70141;BME280;57508;43.086;0.136;2022-09-09T07:08:52;96068.09;;;27.07;39.49
70141;BME280;57508;43.086;0.136;2022-09-09T07:11:20;96070.00;;;26.81;40.19
70141;BME280;57508;43.086;0.136;2022-09-09T07:13:47;96076.84;;;26.34;40.58
70141;BME280;57508;43.086;0.136;2022-09-09T07:16:18;96075.75;;;26.50;40.51
70141;BME280;57508;43.086;0.136;2022-09-09T07:18:44;96073.91;;;27.01;39.94
70141;BME280;57508;43.086;0.136;2022-09-09T07:21:12;96078.94;;;27.36;39.21
70141;BME280;57508;43.086;0.136;2022-09-09T07:23:43;96080.09;;;27.42;39.20
70141;BME280;57508;43.086;0.136;2022-09-09T07:26:15;96085.13;;;27.62;39.24
70141;BME280;57508;43.086;0.136;2022-09-09T07:28:42;96087.47;;;27.67;39.01
70141;BME280;57508;43.086;0.136;2022-09-09T07:31:16;96089.78;;;27.72;39.19
70141;BME280;57508;43.086;0.136;2022-09-09T07:33:43;96093.25;;;27.84;38.18
70141;BME280;57508;43.086;0.136;2022-09-09T07:36:20;96091.28;;;27.95;38.96
70141;BME280;57508;43.086;0.136;2022-09-09T07:38:51;96095.13;;;28.05;38.85
70141;BME280;57508;43.086;0.136;2022-09-09T07:41:28;96095.09;;;28.12;38.39
70141;BME280;57508;43.086;0.136;2022-09-09T07:43:54;96090.41;;;28.20;38.76
70141;BME280;57508;43.086;0.136;2022-09-09T07:46:21;96088.19;;;28.00;38.72
70141;BME280;57508;43.086;0.136;2022-09-09T07:48:52;96101.25;;;28.27;38.44
70141;BME280;57508;43.086;0.136;2022-09-09T07:51:30;96101.28;;;28.31;38.33
70141;BME280;57508;43.086;0.136;2022-09-09T07:54:01;96108.63;;;28.38;38.02
70141;BME280;57508;43.086;0.136;2022-09-09T07:56:29;96107.84;;;28.41;37.82
70141;BME280;57508;43.086;0.136;2022-09-09T07:58:56;96116.28;;;28.61;37.67
70141;BME280;57508;43.086;0.136;2022-09-09T08:01:24;96111.56;;;28.69;37.82
70141;BME280;57508;43.086;0.136;2022-09-09T08:03:58;96118.94;;;28.72;37.36
70141;BME280;57508;43.086;0.136;2022-09-09T08:06:26;96126.34;;;28.68;36.94
70141;BME280;57508;43.086;0.136;2022-09-09T08:08:53;96123.25;;;28.66;36.85
70141;BME280;57508;43.086;0.136;2022-09-09T08:11:22;96125.34;;;28.25;37.16
70141;BME280;57508;43.086;0.136;2022-09-09T08:13:49;96126.16;;;28.11;36.55
70141;BME280;57508;43.086;0.136;2022-09-09T08:16:18;96133.16;;;28.09;36.93
70141;BME280;57508;43.086;0.136;2022-09-09T08:18:44;96141.00;;;27.74;37.80
70141;BME280;57508;43.086;0.136;2022-09-09T08:21:15;96138.63;;;27.47;38.21
70141;BME280;57508;43.086;0.136;2022-09-09T08:23:44;96135.19;;;27.68;38.17
70141;BME280;57508;43.086;0.136;2022-09-09T08:26:22;96141.69;;;28.03;37.81
70141;BME280;57508;43.086;0.136;2022-09-09T08:28:53;96139.44;;;27.76;38.19
70141;BME280;57508;43.086;0.136;2022-09-09T08:31:24;96143.66;;;27.85;37.87
70141;BME280;57508;43.086;0.136;2022-09-09T08:33:50;96146.31;;;28.28;37.03
70141;BME280;57508;43.086;0.136;2022-09-09T08:36:20;96149.59;;;28.73;37.27
70141;BME280;57508;43.086;0.136;2022-09-09T08:38:51;96151.50;;;28.87;36.65
70141;BME280;57508;43.086;0.136;2022-09-09T08:44:18;96165.53;;;28.74;37.47
70141;BME280;57508;43.086;0.136;2022-09-09T08:52:23;96166.53;;;29.10;37.79
70141;BME280;57508;43.086;0.136;2022-09-09T08:54:50;96177.47;;;29.02;37.04
70141;BME280;57508;43.086;0.136;2022-09-09T08:57:23;96175.81;;;29.20;37.56
70141;BME280;57508;43.086;0.136;2022-09-09T08:59:52;96173.25;;;28.87;37.61
70141;BME280;57508;43.086;0.136;2022-09-09T09:12:43;96192.03;;;28.59;38.15
70141;BME280;57508;43.086;0.136;2022-09-09T09:15:31;96201.78;;;28.35;38.64
70141;BME280;57508;43.086;0.136;2022-09-09T09:18:02;96204.22;;;29.11;36.55
70141;BME280;57508;43.086;0.136;2022-09-09T09:23:15;96197.59;;;29.20;36.73
70141;BME280;57508;43.086;0.136;2022-09-09T09:25:43;96201.91;;;29.10;37.37
70141;BME280;57508;43.086;0.136;2022-09-09T09:28:13;96211.28;;;29.01;37.09
70141;BME280;57508;43.086;0.136;2022-09-09T09:31:04;96213.19;;;29.08;37.61
70141;BME280;57508;43.086;0.136;2022-09-09T09:36:06;96212.28;;;29.29;38.05
70141;BME280;57508;43.086;0.136;2022-09-09T09:38:34;96224.75;;;29.23;38.51
70141;BME280;57508;43.086;0.136;2022-09-09T09:40:59;96223.00;;;28.84;40.22
70141;BME280;57508;43.086;0.136;2022-09-09T09:43:34;96221.88;;;28.70;41.66
70141;BME280;57508;43.086;0.136;2022-09-09T09:46:00;96222.31;;;28.58;42.25
70141;BME280;57508;43.086;0.136;2022-09-09T09:48:28;96227.59;;;29.05;41.05
70141;BME280;57508;43.086;0.136;2022-09-09T09:51:08;96236.63;;;28.76;41.94
70141;BME280;57508;43.086;0.136;2022-09-09T09:53:37;96235.38;;;28.92;41.14
70141;BME280;57508;43.086;0.136;2022-09-09T09:56:09;96240.16;;;28.55;41.74
70141;BME280;57508;43.086;0.136;2022-09-09T10:01:32;96246.44;;;28.41;41.89
70141;BME280;57508;43.086;0.136;2022-09-09T10:04:20;96247.22;;;28.16;43.18
70141;BME280;57508;43.086;0.136;2022-09-09T10:06:47;96246.81;;;28.43;42.54
70141;BME280;57508;43.086;0.136;2022-09-09T10:09:29;96254.50;;;28.74;42.40
70141;BME280;57508;43.086;0.136;2022-09-09T10:37:04;96257.13;;;29.03;41.62
70141;BME280;57508;43.086;0.136;2022-09-09T10:39:39;96263.06;;;28.65;42.64
70141;BME280;57508;43.086;0.136;2022-09-09T10:42:09;96260.41;;;28.28;41.97
70141;BME280;57508;43.086;0.136;2022-09-09T10:53:10;96271.19;;;27.37;43.99
70141;BME280;57508;43.086;0.136;2022-09-09T10:55:43;96265.84;;;26.59;45.32
70141;BME280;57508;43.086;0.136;2022-09-09T10:58:17;96262.97;;;27.05;45.22
70141;BME280;57508;43.086;0.136;2022-09-09T11:00:50;96267.50;;;26.86;44.72
70141;BME280;57508;43.086;0.136;2022-09-09T11:03:26;96274.22;;;27.14;43.99
70141;BME280;57508;43.086;0.136;2022-09-09T11:05:57;96275.50;;;26.53;45.10
70141;BME280;57508;43.086;0.136;2022-09-09T11:08:29;96276.41;;;26.83;44.71
70141;BME280;57508;43.086;0.136;2022-09-09T11:11:03;96277.47;;;27.67;42.73
70141;BME280;57508;43.086;0.136;2022-09-09T11:13:55;96275.34;;;26.98;43.45
70141;BME280;57508;43.086;0.136;2022-09-09T11:16:42;96272.75;;;27.35;42.45
70141;BME280;57508;43.086;0.136;2022-09-09T11:19:33;96271.69;;;27.94;40.39
70141;BME280;57508;43.086;0.136;2022-09-09T11:22:03;96258.09;;;28.20;40.11
70141;BME280;57508;43.086;0.136;2022-09-09T11:24:45;96256.88;;;27.44;40.71
70141;BME280;57508;43.086;0.136;2022-09-09T11:27:30;96262.75;;;28.12;40.05
70141;BME280;57508;43.086;0.136;2022-09-09T11:30:05;96258.88;;;28.35;38.90
70141;BME280;57508;43.086;0.136;2022-09-09T11:38:27;96255.56;;;29.06;36.63
70141;BME280;57508;43.086;0.136;2022-09-09T11:41:04;96261.44;;;28.97;37.90
70141;BME280;57508;43.086;0.136;2022-09-09T11:43:39;96254.38;;;29.07;36.52
70141;BME280;57508;43.086;0.136;2022-09-09T11:46:06;96257.59;;;29.62;36.48
70141;BME280;57508;43.086;0.136;2022-09-09T11:51:09;96256.22;;;29.32;37.36
70141;BME280;57508;43.086;0.136;2022-09-09T11:53:50;96258.94;;;29.32;37.68
70141;BME280;57508;43.086;0.136;2022-09-09T11:56:32;96244.41;;;30.48;35.46
70141;BME280;57508;43.086;0.136;2022-09-09T11:59:17;96250.00;;;30.34;35.00
70141;BME280;57508;43.086;0.136;2022-09-09T12:01:48;96246.25;;;30.59;34.58
70141;BME280;57508;43.086;0.136;2022-09-09T12:06:55;96249.63;;;31.88;33.68
70141;BME280;57508;43.086;0.136;2022-09-09T12:11:48;96265.81;;;32.02;32.05
70141;BME280;57508;43.086;0.136;2022-09-09T12:19:40;96260.09;;;31.93;31.83
70141;BME280;57508;43.086;0.136;2022-09-09T12:22:16;96254.94;;;31.99;31.70
70141;BME280;57508;43.086;0.136;2022-09-09T12:24:57;96259.19;;;32.68;32.36
70141;BME280;57508;43.086;0.136;2022-09-09T12:27:31;96258.84;;;32.86;30.83
70141;BME280;57508;43.086;0.136;2022-09-09T12:30:04;96259.47;;;32.53;31.50
70141;BME280;57508;43.086;0.136;2022-09-09T12:32:29;96266.94;;;32.73;31.79
70141;BME280;57508;43.086;0.136;2022-09-09T12:35:11;96264.88;;;32.13;30.82
70141;BME280;57508;43.086;0.136;2022-09-09T12:37:42;96266.28;;;32.65;31.49
70141;BME280;57508;43.086;0.136;2022-09-09T12:40:29;96268.38;;;32.78;31.87
70141;BME280;57508;43.086;0.136;2022-09-09T12:42:55;96266.38;;;31.90;33.51
70141;BME280;57508;43.086;0.136;2022-09-09T12:45:23;96260.81;;;32.21;31.99
70141;BME280;57508;43.086;0.136;2022-09-09T12:47:58;96265.63;;;32.13;31.60
70141;BME280;57508;43.086;0.136;2022-09-09T12:50:33;96271.41;;;31.95;32.67
70141;BME280;57508;43.086;0.136;2022-09-09T12:53:14;96274.41;;;31.49;32.67
70141;BME280;57508;43.086;0.136;2022-09-09T12:55:50;96261.63;;;31.11;33.55
70141;BME280;57508;43.086;0.136;2022-09-09T12:58:18;96260.78;;;32.01;32.68
70141;BME280;57508;43.086;0.136;2022-09-09T13:00:53;96258.81;;;32.45;33.09
70141;BME280;57508;43.086;0.136;2022-09-09T13:03:21;96253.56;;;32.95;31.01
70141;BME280;57508;43.086;0.136;2022-09-09T13:05:47;96250.47;;;33.14;31.56
70141;BME280;57508;43.086;0.136;2022-09-09T13:08:14;96243.56;;;33.63;30.78
70141;BME280;57508;43.086;0.136;2022-09-09T13:13:24;96245.53;;;35.27;27.25
70141;BME280;57508;43.086;0.136;2022-09-09T13:15:56;96244.09;;;35.62;27.22
70141;BME280;57508;43.086;0.136;2022-09-09T13:18:44;96243.88;;;36.17;26.38
70141;BME280;57508;43.086;0.136;2022-09-09T13:21:09;96234.44;;;36.05;26.29
70141;BME280;57508;43.086;0.136;2022-09-09T13:23:36;96241.78;;;35.47;26.22
70141;BME280;57508;43.086;0.136;2022-09-09T13:26:04;96238.78;;;35.02;27.58
70141;BME280;57508;43.086;0.136;2022-09-09T13:28:32;96234.75;;;34.34;27.61
70141;BME280;57508;43.086;0.136;2022-09-09T13:31:05;96235.47;;;34.22;29.03
70141;BME280;57508;43.086;0.136;2022-09-09T13:33:37;96224.88;;;34.67;27.57
70141;BME280;57508;43.086;0.136;2022-09-09T13:36:04;96226.72;;;35.39;26.73
70141;BME280;57508;43.086;0.136;2022-09-09T13:41:19;96211.75;;;38.05;24.14
70141;BME280;57508;43.086;0.136;2022-09-09T13:43:47;96211.88;;;38.57;25.48
70141;BME280;57508;43.086;0.136;2022-09-09T13:46:25;96216.75;;;39.58;21.81
70141;BME280;57508;43.086;0.136;2022-09-09T13:48:59;96209.78;;;39.72;22.42
70141;BME280;57508;43.086;0.136;2022-09-09T13:51:42;96203.94;;;39.12;22.99
70141;BME280;57508;43.086;0.136;2022-09-09T13:54:13;96210.97;;;38.04;22.61
70141;BME280;57508;43.086;0.136;2022-09-09T13:56:40;96207.31;;;38.26;23.16
70141;BME280;57508;43.086;0.136;2022-09-09T13:59:10;96208.53;;;38.25;23.09
70141;BME280;57508;43.086;0.136;2022-09-09T14:01:36;96203.34;;;38.18;23.24
70141;BME280;57508;43.086;0.136;2022-09-09T14:04:03;96203.59;;;38.67;22.61
70141;BME280;57508;43.086;0.136;2022-09-09T14:06:29;96190.88;;;39.12;22.02
70141;BME280;57508;43.086;0.136;2022-09-09T14:08:54;96186.25;;;38.75;22.29
70141;BME280;57508;43.086;0.136;2022-09-09T14:11:20;96199.72;;;38.83;22.61
70141;BME280;57508;43.086;0.136;2022-09-09T14:13:47;96179.75;;;38.88;22.59
70141;BME280;57508;43.086;0.136;2022-09-09T14:16:15;96193.47;;;38.63;23.42
70141;BME280;57508;43.086;0.136;2022-09-09T14:18:41;96187.31;;;37.56;23.37
70141;BME280;57508;43.086;0.136;2022-09-09T14:21:07;96192.16;;;36.47;24.10
70141;BME280;57508;43.086;0.136;2022-09-09T14:23:33;96181.94;;;37.53;23.79
70141;BME280;57508;43.086;0.136;2022-09-09T14:25:59;96191.50;;;38.36;22.37
70141;BME280;57508;43.086;0.136;2022-09-09T14:28:24;96185.66;;;37.78;23.30
70141;BME280;57508;43.086;0.136;2022-09-09T14:30:50;96187.19;;;37.69;23.31
70141;BME280;57508;43.086;0.136;2022-09-09T14:33:16;96180.00;;;37.81;22.77
70141;BME280;57508;43.086;0.136;2022-09-09T14:35:42;96194.41;;;36.94;24.57
70141;BME280;57508;43.086;0.136;2022-09-09T14:38:08;96200.41;;;36.70;25.23
70141;BME280;57508;43.086;0.136;2022-09-09T14:40:35;96187.34;;;36.39;25.16
70141;BME280;57508;43.086;0.136;2022-09-09T14:43:01;96192.41;;;35.82;25.40
70141;BME280;57508;43.086;0.136;2022-09-09T14:45:27;96196.97;;;35.98;25.75
70141;BME280;57508;43.086;0.136;2022-09-09T14:47:52;96196.59;;;35.74;26.48
70141;BME280;57508;43.086;0.136;2022-09-09T14:50:19;96189.38;;;35.54;26.47
70141;BME280;57508;43.086;0.136;2022-09-09T14:52:45;96187.19;;;35.36;26.11
70141;BME280;57508;43.086;0.136;2022-09-09T14:55:11;96190.81;;;35.33;27.14
70141;BME280;57508;43.086;0.136;2022-09-09T14:57:36;96192.88;;;35.42;26.94
70141;BME280;57508;43.086;0.136;2022-09-09T15:00:05;96197.28;;;35.39;26.22
70141;BME280;57508;43.086;0.136;2022-09-09T15:02:32;96192.81;;;35.32;26.76
70141;BME280;57508;43.086;0.136;2022-09-09T15:04:58;96190.50;;;34.62;27.26
70141;BME280;57508;43.086;0.136;2022-09-09T15:07:24;96197.16;;;34.48;28.01
70141;BME280;57508;43.086;0.136;2022-09-09T15:09:50;96197.75;;;34.26;27.66
70141;BME280;57508;43.086;0.136;2022-09-09T15:12:15;96196.38;;;34.77;26.42
70141;BME280;57508;43.086;0.136;2022-09-09T15:14:42;96188.78;;;34.39;27.52
70141;BME280;57508;43.086;0.136;2022-09-09T15:17:08;96192.69;;;34.54;27.32
70141;BME280;57508;43.086;0.136;2022-09-09T15:19:33;96196.69;;;34.37;27.91
70141;BME280;57508;43.086;0.136;2022-09-09T15:21:59;96198.22;;;34.67;28.05